Time;durP1;ratioP1;P1;durP2;ratioP2;P2;SDS_P1;SDS_P2;PMS_P1;PMS_P2;Temp;Humidity;BMP_temperature;BMP_pressure;BME280_temperature;BME280_humidity;BME280_pressure;Samples;Min_cycle;Max_cycle;Signal;HPM_P1;HPM_P2
2021/01/15 00:01:39;;;;;;;12.23;4.97;;;-0.90;74.60;;;;;;4938052;28;20023;-82
2021/01/15 00:04:08;;;;;;;14.02;5.63;;;-1.00;74.60;;;;;;4942082;28;20086;-82
2021/01/15 00:06:34;;;;;;;10.32;4.60;;;-1.00;74.70;;;;;;4957464;28;20070;-82
2021/01/15 00:09:00;;;;;;;14.00;5.22;;;0.10;75.40;;;;;;4958015;28;20479;-83
2021/01/15 00:11:31;;;;;;;13.02;5.45;;;-1.00;74.90;;;;;;4956502;28;20110;-82
2021/01/15 00:13:59;;;;;;;14.38;5.45;;;-1.20;74.80;;;;;;4957378;28;20030;-82
2021/01/15 00:16:30;;;;;;;13.20;5.50;;;-1.10;74.80;;;;;;4957804;28;20514;-82
2021/01/15 00:18:57;;;;;;;13.73;5.25;;;-1.20;74.80;;;;;;4957587;28;20113;-82
2021/01/15 00:21:29;;;;;;;11.80;4.75;;;-1.20;74.70;;;;;;4958329;28;20353;-82
2021/01/15 00:23:57;;;;;;;18.52;5.50;;;-1.30;74.80;;;;;;4974329;28;20015;-82
2021/01/15 00:26:25;;;;;;;11.77;5.22;;;-1.30;75.50;;;;;;4957993;28;20030;-81
2021/01/15 00:28:52;;;;;;;15.85;5.30;;;-1.30;75.00;;;;;;4941778;28;20391;-82
2021/01/15 00:31:18;;;;;;;20.25;6.20;;;-1.20;75.30;;;;;;4957867;28;20027;-82
2021/01/15 00:33:45;;;;;;;13.00;6.38;;;-1.50;75.10;;;;;;4952255;28;20039;-82
2021/01/15 00:36:12;;;;;;;12.90;6.30;;;-1.30;75.00;;;;;;4941739;28;20030;-82
2021/01/15 00:38:38;;;;;;;14.05;5.85;;;-1.40;74.90;;;;;;4957248;28;20023;-82
2021/01/15 00:41:06;;;;;;;12.35;5.15;;;-1.40;75.00;;;;;;4956829;28;20030;-83
2021/01/15 00:43:33;;;;;;;12.95;5.50;;;-1.30;74.90;;;;;;4957921;28;20482;-82
2021/01/15 00:45:59;;;;;;;11.82;5.75;;;-1.50;74.60;;;;;;4957074;28;20034;-82
2021/01/15 00:48:26;;;;;;;13.80;5.43;;;-1.50;74.70;;;;;;4956647;28;20034;-83
2021/01/15 00:50:52;;;;;;;10.27;4.35;;;-1.70;74.80;;;;;;4956247;28;20071;-83
2021/01/15 00:53:18;;;;;;;11.95;4.20;;;-1.70;74.90;;;;;;4957306;28;20031;-83
2021/01/15 00:55:44;;;;;;;12.00;4.50;;;-1.60;75.00;;;;;;4968406;28;20533;-82
2021/01/15 00:58:13;;;;;;;10.80;4.68;;;-1.60;75.10;;;;;;4956679;28;20023;-83
2021/01/15 01:00:40;;;;;;;11.55;4.93;;;-1.60;75.20;;;;;;4957058;28;20023;-82
2021/01/15 01:03:07;;;;;;;8.68;4.05;;;-1.50;75.40;;;;;;4973778;28;20018;-82
2021/01/15 01:05:34;;;;;;;12.70;4.65;;;-1.60;75.40;;;;;;4957355;28;20023;-82
2021/01/15 01:08:10;;;;;;;13.25;4.40;;;-1.60;75.40;;;;;;4940690;28;20428;-83
2021/01/15 01:10:37;;;;;;;12.18;4.78;;;-1.60;75.30;;;;;;4956640;28;20023;-83
2021/01/15 01:13:03;;;;;;;9.85;4.25;;;-1.50;75.50;;;;;;4957153;28;20535;-83
2021/01/15 01:15:32;;;;;;;10.00;4.75;;;-1.40;75.90;;;;;;4956812;28;20183;-83
2021/01/15 01:17:57;;;;;;;9.38;4.53;;;-1.30;75.80;;;;;;4956239;28;20519;-83
2021/01/15 01:20:23;;;;;;;9.00;3.95;;;-1.30;75.80;;;;;;4955630;28;20111;-83
2021/01/15 01:22:52;;;;;;;13.15;5.40;;;-1.40;75.80;;;;;;4956838;28;20046;-83
2021/01/15 01:25:19;;;;;;;11.45;4.30;;;-1.30;76.00;;;;;;4940911;28;20027;-83
2021/01/15 01:27:45;;;;;;;10.93;5.05;;;-1.30;76.10;;;;;;4955859;28;20031;-83
2021/01/15 01:30:13;;;;;;;11.27;5.05;;;-1.30;76.00;;;;;;4950881;28;20066;-83
2021/01/15 01:32:40;;;;;;;12.38;4.95;;;-1.20;76.00;;;;;;4956650;28;20037;-82
2021/01/15 01:35:06;;;;;;;11.25;4.63;;;-1.10;76.30;;;;;;4957056;28;20521;-81
2021/01/15 01:37:32;;;;;;;13.75;4.50;;;-1.20;75.50;;;;;;4955499;28;20023;-82
2021/01/15 01:39:58;;;;;;;10.88;4.90;;;-1.20;75.50;;;;;;4958485;28;20086;-82
2021/01/15 01:42:24;;;;;;;11.30;4.82;;;-1.20;75.50;;;;;;4961195;28;20031;-82
2021/01/15 01:44:50;;;;;;;9.93;4.90;;;-1.20;75.40;;;;;;4955905;28;20110;-82
2021/01/15 01:47:17;;;;;;;10.95;4.45;;;-1.20;75.30;;;;;;4934609;28;20106;-82
2021/01/15 01:49:42;;;;;;;11.15;5.18;;;-1.40;75.10;;;;;;4972676;28;20019;-83
2021/01/15 01:52:08;;;;;;;10.55;5.15;;;-1.40;75.00;;;;;;4940621;28;20498;-82
2021/01/15 01:54:36;;;;;;;13.57;4.82;;;-1.60;74.70;;;;;;4939489;28;20046;-82
2021/01/15 01:57:04;;;;;;;10.13;4.88;;;-1.60;74.70;;;;;;4949892;28;20530;-83
2021/01/15 01:59:30;;;;;;;10.63;4.55;;;-1.70;74.60;;;;;;4955377;28;20035;-82
2021/01/15 02:01:56;;;;;;;8.80;4.07;;;-1.70;74.60;;;;;;4973595;28;20086;-82
2021/01/15 02:04:22;;;;;;;11.75;4.85;;;-1.90;74.40;;;;;;4955497;28;20042;-82
2021/01/15 02:06:50;;;;;;;12.35;5.30;;;-2.00;75.00;;;;;;4942454;28;20077;-83
2021/01/15 02:09:25;;;;;;;11.30;4.85;;;-2.00;74.50;;;;;;4955652;28;20027;-82
2021/01/15 02:12:20;;;;;;;10.48;4.15;;;-2.10;74.50;;;;;;4955579;28;20026;-83
2021/01/15 02:15:09;;;;;;;12.75;4.38;;;-2.20;74.50;;;;;;4936911;28;20027;-82
2021/01/15 02:17:42;;;;;;;15.85;4.57;;;-2.30;74.40;;;;;;4955533;28;20105;-82
2021/01/15 02:20:39;;;;;;;11.18;4.35;;;-2.30;74.50;;;;;;4955628;28;20475;-82
2021/01/15 02:23:08;;;;;;;10.15;4.05;;;-2.40;74.40;;;;;;4952946;28;20085;-82
2021/01/15 02:25:40;;;;;;;12.43;4.15;;;-2.50;74.40;;;;;;4950593;28;20023;-82
2021/01/15 02:28:38;;;;;;;11.68;4.55;;;-2.50;74.40;;;;;;4954769;28;20037;-82
2021/01/15 02:31:34;;;;;;;11.80;4.85;;;-2.60;74.30;;;;;;4932279;28;20039;-83
2021/01/15 02:34:31;;;;;;;8.40;4.30;;;-2.70;74.30;;;;;;4955666;28;20072;-83
2021/01/15 02:37:05;;;;;;;10.88;4.97;;;-2.70;74.40;;;;;;4972902;28;20035;-83
2021/01/15 02:39:50;;;;;;;9.13;4.35;;;-2.80;74.30;;;;;;4955541;28;20026;-83
2021/01/15 02:42:17;;;;;;;12.65;4.38;;;-2.80;74.50;;;;;;4953442;28;20058;-83
2021/01/15 02:44:48;;;;;;;11.57;4.93;;;-2.50;74.80;;;;;;4954712;28;20015;-83
2021/01/15 02:47:29;;;;;;;10.10;4.60;;;-2.70;74.50;;;;;;4954624;28;20035;-83
2021/01/15 02:49:57;;;;;;;11.52;5.18;;;-2.70;74.70;;;;;;4954039;28;20023;-83
2021/01/15 02:52:24;;;;;;;15.82;4.53;;;-3.00;74.40;;;;;;4954517;29;20027;-83
2021/01/15 02:54:50;;;;;;;13.60;5.15;;;-3.00;74.40;;;;;;4936564;29;20067;-83
2021/01/15 02:57:16;;;;;;;12.70;5.03;;;-2.90;74.50;;;;;;4935919;29;20122;-83
2021/01/15 02:59:42;;;;;;;10.45;4.65;;;-3.10;74.40;;;;;;4936918;29;20568;-83
2021/01/15 03:02:20;;;;;;;10.20;4.43;;;-3.00;74.40;;;;;;4920601;29;20130;-83
2021/01/15 03:04:56;;;;;;;9.82;4.40;;;-3.10;74.40;;;;;;4948623;29;20059;-83
2021/01/15 03:07:24;;;;;;;9.15;4.05;;;-3.20;74.40;;;;;;4936253;29;20050;-83
2021/01/15 03:09:53;;;;;;;15.88;5.60;;;-3.30;74.40;;;;;;4939380;29;20023;-83
2021/01/15 03:12:21;;;;;;;12.80;5.00;;;-3.00;74.50;;;;;;4939565;29;20020;-81
2021/01/15 03:14:47;;;;;;;9.65;4.85;;;-3.30;74.30;;;;;;4940130;29;20392;-81
2021/01/15 03:17:16;;;;;;;12.75;4.53;;;-3.20;74.60;;;;;;4940030;29;20027;-81
2021/01/15 03:19:42;;;;;;;13.35;4.80;;;-3.40;74.40;;;;;;4939410;29;20498;-82
2021/01/15 03:22:15;;;;;;;11.73;4.82;;;-3.50;74.30;;;;;;4939949;29;20082;-82
2021/01/15 03:25:08;;;;;;;9.48;4.40;;;-3.30;74.50;;;;;;4940653;29;20023;-83
2021/01/15 03:27:49;;;;;;;9.10;4.32;;;-3.60;74.30;;;;;;4932569;29;20039;-83
2021/01/15 03:30:24;;;;;;;10.73;4.15;;;-3.40;74.40;;;;;;4934999;29;20030;-83
2021/01/15 03:32:55;;;;;;;10.75;4.30;;;-3.60;74.20;;;;;;4940021;29;20063;-83
2021/01/15 03:35:24;;;;;;;12.60;5.07;;;-3.70;74.80;;;;;;4939799;29;20046;-83
2021/01/15 03:38:04;;;;;;;10.23;4.20;;;-3.40;74.40;;;;;;4937997;29;20023;-83
2021/01/15 03:40:49;;;;;;;9.80;4.45;;;-3.80;74.20;;;;;;4939748;29;20123;-83
2021/01/15 03:43:14;;;;;;;;;;;-3.80;74.20;;;;;;4939983;29;20130;-82
2021/01/15 03:45:50;;;;;;;9.27;3.78;;;-3.80;74.40;;;;;;4939979;29;19986;-82
2021/01/15 03:48:17;;;;;;;12.43;5.32;;;-3.90;74.30;;;;;;4939374;29;20031;-82
2021/01/15 03:50:44;;;;;;;8.75;4.18;;;-3.90;74.30;;;;;;4939178;29;20126;-82
2021/01/15 03:53:13;;;;;;;9.30;4.30;;;-3.80;74.50;;;;;;4939322;29;20023;-82
2021/01/15 03:55:39;;;;;;;8.50;3.78;;;-4.00;74.30;;;;;;4939163;29;20023;-83
2021/01/15 03:58:05;;;;;;;9.73;4.47;;;-4.00;74.20;;;;;;4923978;29;20035;-84
2021/01/15 04:00:31;;;;;;;10.57;4.72;;;-4.00;74.20;;;;;;4939187;29;20024;-82
2021/01/15 04:03:00;;;;;;;9.38;4.70;;;-4.00;74.40;;;;;;4933583;29;20027;-82
2021/01/15 04:05:25;;;;;;;9.77;4.65;;;-3.70;74.50;;;;;;4939116;29;21378;-82
2021/01/15 04:07:51;;;;;;;10.65;4.38;;;-4.00;74.40;;;;;;4939666;29;20019;-82
2021/01/15 04:10:19;;;;;;;12.82;4.80;;;-4.10;74.90;;;;;;4956652;29;20034;-82
2021/01/15 04:12:45;;;;;;;11.05;5.40;;;-4.10;74.20;;;;;;4938169;29;20030;-83
2021/01/15 04:15:13;;;;;;;13.27;4.68;;;-4.20;74.20;;;;;;4938982;29;20050;-83
2021/01/15 04:17:40;;;;;;;11.70;4.65;;;-4.20;74.20;;;;;;4938588;29;20023;-82
2021/01/15 04:20:08;;;;;;;9.15;3.45;;;-3.80;74.50;;;;;;4955007;28;20027;-82
2021/01/15 04:22:35;;;;;;;11.43;4.70;;;-4.20;74.20;;;;;;4938240;29;20110;-82
2021/01/15 04:25:02;;;;;;;13.43;4.68;;;-4.30;74.20;;;;;;4939026;29;20030;-83
2021/01/15 04:27:31;;;;;;;11.35;5.38;;;-4.30;74.90;;;;;;4938732;29;20030;-82
2021/01/15 04:29:57;;;;;;;13.50;5.03;;;-4.20;74.50;;;;;;4937648;29;20102;-83
2021/01/15 04:32:24;;;;;;;11.85;5.30;;;-4.30;74.70;;;;;;4933140;29;20535;-83
2021/01/15 04:34:50;;;;;;;17.15;5.38;;;-4.10;74.80;;;;;;4938409;29;20035;-83
2021/01/15 04:37:16;;;;;;;15.07;5.95;;;-4.20;74.60;;;;;;4938715;29;20026;-83
2021/01/15 04:39:42;;;;;;;11.73;5.15;;;-4.20;74.50;;;;;;4938698;29;20039;-82
2021/01/15 04:42:08;;;;;;;12.95;5.32;;;-4.30;74.40;;;;;;4937866;29;20498;-83
2021/01/15 04:44:35;;;;;;;15.20;6.18;;;-4.30;74.50;;;;;;4938637;29;20038;-84
2021/01/15 04:47:04;;;;;;;12.93;5.90;;;-4.30;74.40;;;;;;4922592;29;20060;-83
2021/01/15 04:49:30;;;;;;;19.50;4.93;;;-4.20;74.40;;;;;;4955329;29;20094;-84
2021/01/15 04:52:01;;;;;;;14.35;6.03;;;-4.40;74.30;;;;;;4954739;28;20070;-84
2021/01/15 04:54:36;;;;;;;11.02;4.38;;;-4.20;74.30;;;;;;4957604;28;20030;-83
2021/01/15 04:57:07;;;;;;;14.55;5.32;;;-4.40;74.10;;;;;;4957024;28;20019;-84
2021/01/15 04:59:48;;;;;;;13.63;5.10;;;-4.50;74.10;;;;;;4957372;28;20391;-83
2021/01/15 05:02:16;;;;;;;11.40;4.78;;;-4.40;74.20;;;;;;4953314;28;20022;-83
2021/01/15 05:04:42;;;;;;;10.73;4.53;;;-4.50;74.20;;;;;;4957322;28;20050;-83
2021/01/15 05:07:10;;;;;;;12.02;4.18;;;-4.60;74.10;;;;;;4940726;28;20054;-82
2021/01/15 05:09:43;;;;;;;12.23;5.35;;;-4.60;74.10;;;;;;4957125;28;20054;-83
2021/01/15 05:12:17;;;;;;;11.15;4.30;;;-4.60;74.80;;;;;;4954851;28;20368;-83
2021/01/15 05:14:49;;;;;;;9.10;4.50;;;-4.70;74.10;;;;;;4956189;28;20125;-84
2021/01/15 05:17:18;;;;;;;9.00;4.18;;;-4.60;74.30;;;;;;4956850;28;20030;-83
2021/01/15 05:19:44;;;;;;;12.48;4.25;;;-4.70;74.20;;;;;;4955050;28;20027;-83
2021/01/15 05:22:14;;;;;;;11.10;4.70;;;-4.70;74.10;;;;;;4956739;28;20550;-83
2021/01/15 05:24:40;;;;;;;12.07;4.95;;;-4.70;74.30;;;;;;4955990;28;20031;-84
2021/01/15 05:30:24;;;;;;;8.15;3.90;;;-4.80;74.20;;;;;;4970106;28;20030;-83
2021/01/15 05:32:52;;;;;;;10.88;4.90;;;-4.80;74.10;;;;;;4945453;28;20026;-83
2021/01/15 05:35:19;;;;;;;9.23;4.07;;;-4.90;74.10;;;;;;4956344;28;20418;-83
2021/01/15 05:38:05;;;;;;;12.25;5.13;;;-4.90;74.20;;;;;;4954883;28;20023;-83
2021/01/15 05:40:41;;;;;;;11.65;5.10;;;-4.90;74.20;;;;;;4955931;28;20023;-82
2021/01/15 05:43:21;;;;;;;10.20;4.47;;;-4.80;74.20;;;;;;4951727;28;20438;-82
2021/01/15 05:46:03;;;;;;;8.45;3.95;;;-5.00;74.20;;;;;;4955903;28;20092;-82
2021/01/15 05:48:29;;;;;;;12.75;4.43;;;-4.90;74.20;;;;;;4956048;28;20061;-82
2021/01/15 05:50:55;;;;;;;12.18;4.82;;;-5.00;74.20;;;;;;4939276;28;20078;-82
2021/01/15 05:53:22;;;;;;;12.52;4.50;;;-5.00;74.10;;;;;;4950121;28;20092;-82
2021/01/15 05:55:58;;;;;;;11.63;4.43;;;-5.00;74.20;;;;;;4956182;28;20076;-82
2021/01/15 05:58:24;;;;;;;8.18;3.38;;;-5.00;74.10;;;;;;4951324;28;20026;-82
2021/01/15 06:00:53;;;;;;;9.77;3.97;;;-5.00;74.10;;;;;;4956179;28;20054;-82
2021/01/15 06:03:22;;;;;;;11.25;4.18;;;-5.10;74.00;;;;;;4956685;28;20379;-82
2021/01/15 06:05:52;;;;;;;8.63;4.55;;;-5.00;74.20;;;;;;4955929;28;20113;-82
2021/01/15 06:08:18;;;;;;;13.10;4.60;;;-5.10;74.10;;;;;;4956239;28;20035;-82
2021/01/15 06:10:47;;;;;;;8.18;3.92;;;-5.10;74.10;;;;;;4941028;28;20090;-82
2021/01/15 06:13:37;;;;;;;10.55;4.68;;;-5.10;74.10;;;;;;4940179;28;20053;-82
2021/01/15 06:16:06;;;;;;;13.90;5.35;;;-5.10;74.20;;;;;;4955046;28;20085;-83
2021/01/15 06:18:35;;;;;;;13.63;5.75;;;-5.10;74.50;;;;;;4973717;28;20015;-85
2021/01/15 06:21:11;;;;;;;9.23;4.63;;;-5.10;74.70;;;;;;4973233;28;20030;-85
2021/01/15 06:23:41;;;;;;;10.40;4.25;;;-5.00;74.60;;;;;;4955933;28;20503;-83
2021/01/15 06:26:09;;;;;;;8.45;4.25;;;-5.10;74.50;;;;;;4950500;28;20038;-83
2021/01/15 06:28:37;;;;;;;7.97;3.88;;;-5.00;74.50;;;;;;4954536;28;20030;-83
2021/01/15 06:31:07;;;;;;;11.20;4.63;;;-5.10;74.20;;;;;;4956000;28;20474;-83
2021/01/15 06:33:33;;;;;;;13.90;4.25;;;-5.10;74.20;;;;;;4939738;28;20038;-83
2021/01/15 06:35:59;;;;;;;8.43;3.75;;;-5.10;74.30;;;;;;4955948;28;20082;-82
2021/01/15 06:38:29;;;;;;;12.32;4.55;;;-5.20;74.20;;;;;;4955584;28;20037;-83
2021/01/15 06:40:57;;;;;;;8.75;4.13;;;-5.10;74.20;;;;;;4955511;28;20050;-83
2021/01/15 06:43:33;;;;;;;11.60;5.18;;;-5.10;74.20;;;;;;4941322;28;20022;-83
2021/01/15 06:46:04;;;;;;;14.57;5.05;;;-5.20;74.20;;;;;;4959323;28;20035;-83
2021/01/15 06:48:44;;;;;;;9.98;3.92;;;-5.20;74.20;;;;;;4976805;28;20027;-83
2021/01/15 06:51:10;;;;;;;13.15;4.20;;;-5.10;74.20;;;;;;4950447;29;20050;-83
2021/01/15 06:53:46;;;;;;;10.43;4.30;;;-5.20;74.20;;;;;;4936095;29;20035;-83
2021/01/15 06:56:19;;;;;;;9.82;3.80;;;-5.30;74.20;;;;;;4940553;29;20028;-82
2021/01/15 06:58:45;;;;;;;13.23;5.60;;;-5.20;74.20;;;;;;4937823;29;20031;-82
2021/01/15 07:01:56;;;;;;;13.15;4.78;;;-5.30;74.20;;;;;;4924349;29;20497;-81
2021/01/15 07:04:28;;;;;;;10.02;4.90;;;-5.30;74.30;;;;;;4930522;29;20035;-82
2021/01/15 07:07:03;;;;;;;9.65;4.63;;;-5.30;74.20;;;;;;4940120;29;20027;-83
2021/01/15 07:09:30;;;;;;;;;;;-5.30;74.20;;;;;;4940784;29;20031;-84
2021/01/15 07:12:01;;;;;;;9.25;4.10;;;-5.30;74.30;;;;;;4940373;29;20262;-84
2021/01/15 07:14:27;;;;;;;4.88;2.88;;;-5.30;74.90;;;;;;4939867;29;20040;-83
2021/01/15 07:16:56;;;;;;;11.82;4.38;;;-5.30;74.80;;;;;;4940232;29;20159;-83
2021/01/15 07:19:35;;;;;;;9.70;4.32;;;-5.20;74.70;;;;;;4939467;29;20023;-82
2021/01/15 07:22:01;;;;;;;13.13;5.18;;;-5.20;74.70;;;;;;4939213;29;20054;-84
2021/01/15 07:24:35;;;;;;;12.13;5.32;;;-5.20;74.70;;;;;;4939150;29;20499;-83
2021/01/15 07:27:01;;;;;;;8.23;4.00;;;-5.10;74.80;;;;;;4940567;29;20031;-81
2021/01/15 07:29:35;;;;;;;8.88;4.80;;;-5.10;74.60;;;;;;4941469;29;20041;-87
2021/01/15 07:32:35;;;;;;;13.15;5.35;;;-5.10;74.70;;;;;;4935011;29;20109;-81
2021/01/15 07:35:02;;;;;;;12.73;4.63;;;-5.10;74.70;;;;;;4939523;29;20032;-84
2021/01/15 07:37:31;;;;;;;10.73;4.82;;;-4.90;74.90;;;;;;4939521;29;20024;-85
2021/01/15 07:40:05;;;;;;;11.10;5.35;;;-4.80;74.90;;;;;;4935017;29;20110;-84
2021/01/15 07:42:54;;;;;;;10.50;4.65;;;-4.90;75.10;;;;;;4933232;29;20443;-83
2021/01/15 07:45:23;;;;;;;15.27;6.72;;;-4.80;75.70;;;;;;4941677;29;20031;-82
2021/01/15 07:47:54;;;;;;;15.88;5.65;;;-4.60;76.00;;;;;;4943936;29;20031;-81
2021/01/15 07:50:46;;;;;;;20.42;6.80;;;-4.50;76.20;;;;;;4945674;28;20047;-83
2021/01/15 07:53:15;;;;;;;15.68;7.13;;;-4.30;76.30;;;;;;4934999;29;20515;-83
2021/01/15 07:55:52;;;;;;;12.35;6.30;;;-4.10;76.40;;;;;;4943245;29;20083;-90
2021/01/15 07:58:21;;;;;;;15.00;7.45;;;-3.80;76.50;;;;;;4940600;29;20028;-87
2021/01/15 08:01:07;;;;;;;15.82;7.30;;;-3.80;76.50;;;;;;4940445;29;20074;-88
2021/01/15 08:03:47;;;;;;;18.65;6.65;;;-3.60;76.60;;;;;;4957543;29;20460;-85
2021/01/15 08:06:16;;;;;;;16.20;7.63;;;-3.50;76.60;;;;;;4939739;29;20031;-87
2021/01/15 08:09:10;;;;;;;19.13;7.18;;;-3.20;76.90;;;;;;4941248;29;20023;-88
2021/01/15 08:11:55;;;;;;;18.27;7.60;;;-3.20;76.80;;;;;;4936389;29;20027;-88
2021/01/15 08:14:30;;;;;;;;;;;-3.00;77.00;;;;;;4933570;29;20070;-88
2021/01/15 08:17:26;;;;;;;;;;;;;;;;;;;;;
2021/01/15 08:20:32;;;;;;;15.35;7.28;;;-2.70;77.00;;;;;;4946934;29;20027;-88
2021/01/15 08:23:09;;;;;;;15.95;7.50;;;-2.50;77.20;;;;;;4933167;29;20122;-88
2021/01/15 08:25:47;;;;;;;18.88;7.78;;;-2.30;77.20;;;;;;4934927;29;20031;-88
2021/01/15 08:28:23;;;;;;;17.17;7.40;;;-2.20;77.10;;;;;;4918418;29;20110;-88
2021/01/15 09:03:21;;;;;;;15.45;6.65;;;-0.60;77.40;;;;;;4872247;29;20044;-84
2021/01/15 09:05:50;;;;;;;17.00;7.45;;;-0.40;77.40;;;;;;4956879;28;20058;-82
2021/01/15 09:08:22;;;;;;;15.57;6.57;;;-0.30;77.60;;;;;;4936590;28;20526;-83
2021/01/15 09:10:51;;;;;;;17.15;8.18;;;-0.10;77.70;;;;;;4949834;28;20110;-91
2021/01/15 09:13:18;;;;;;;16.65;7.10;;;-0.20;77.10;;;;;;4944316;28;20022;-84
2021/01/15 09:15:50;;;;;;;16.60;7.07;;;-0.10;77.50;;;;;;4952783;28;20026;-89
2021/01/15 09:18:24;;;;;;;13.43;6.07;;;0.10;77.70;;;;;;4952528;29;20023;-86
2021/01/15 09:20:50;;;;;;;14.32;7.13;;;0.20;77.60;;;;;;4949957;28;20509;-90
2021/01/15 09:23:42;;;;;;;20.30;8.30;;;0.20;77.60;;;;;;4939696;28;20038;-85
2021/01/15 09:26:30;;;;;;;17.20;6.82;;;0.40;77.80;;;;;;4938294;28;20095;-86
2021/01/15 09:36:16;;;;;;;;;;;;;;;;;;;;;
2021/01/15 09:38:44;;;;;;;14.95;6.03;;;1.00;77.90;;;;;;4952688;28;20038;-86
2021/01/15 09:41:16;;;;;;;15.40;7.40;;;1.10;78.20;;;;;;4942811;29;20031;-85
2021/01/15 09:43:45;;;;;;;16.67;7.70;;;1.40;78.90;;;;;;4928278;28;20035;-85
2021/01/15 09:46:21;;;;;;;16.20;6.70;;;1.60;79.00;;;;;;4944018;28;20495;-84
2021/01/15 09:48:52;;;;;;;15.05;6.45;;;1.90;79.10;;;;;;4937591;28;20379;-88
2021/01/15 09:51:32;;;;;;;14.60;6.80;;;2.00;78.10;;;;;;4931185;28;20506;-88
2021/01/15 09:54:15;;;;;;;11.07;5.38;;;2.00;77.90;;;;;;4947112;29;20046;-88
2021/01/15 09:56:40;;;;;;;13.75;5.78;;;2.10;78.00;;;;;;4927571;28;20023;-85
2021/01/15 09:59:08;;;;;;;13.93;6.30;;;2.30;78.20;;;;;;4944903;28;20117;-87
2021/01/15 10:01:35;;;;;;;15.32;6.07;;;2.50;78.60;;;;;;4922459;29;20065;-87
2021/01/15 10:04:01;;;;;;;14.23;6.57;;;2.70;79.10;;;;;;4941034;29;20019;-87
2021/01/15 10:06:28;;;;;;;16.25;6.25;;;2.90;78.80;;;;;;4941116;29;20030;-87
2021/01/15 10:09:02;;;;;;;14.05;6.68;;;3.00;78.40;;;;;;4904588;29;20125;-88
2021/01/15 10:11:31;;;;;;;14.43;7.18;;;3.00;78.00;;;;;;4919208;29;20025;-88
2021/01/15 10:13:58;;;;;;;13.85;6.32;;;3.20;78.20;;;;;;4925655;29;20036;-87
2021/01/15 10:16:27;;;;;;;14.63;7.45;;;3.20;77.90;;;;;;4919599;29;20036;-85
2021/01/15 10:18:55;;;;;;;16.05;8.07;;;3.20;78.10;;;;;;4910894;29;20023;-85
2021/01/15 10:21:24;;;;;;;15.65;7.00;;;3.30;78.30;;;;;;4937986;29;20495;-84
2021/01/15 10:23:55;;;;;;;15.57;6.40;;;3.50;78.80;;;;;;4909546;29;20059;-84
2021/01/15 10:26:25;;;;;;;12.35;5.72;;;3.50;77.70;;;;;;4926061;29;20027;-83
2021/01/15 10:28:56;;;;;;;12.95;6.43;;;3.60;78.30;;;;;;4917853;29;20103;-85
2021/01/15 10:31:24;;;;;;;15.40;7.60;;;3.70;78.20;;;;;;4931273;29;20027;-85
2021/01/15 10:33:52;;;;;;;14.27;6.57;;;3.70;77.90;;;;;;4926943;29;20090;-87
2021/01/15 10:36:18;;;;;;;13.73;6.35;;;3.80;77.90;;;;;;4926117;29;20027;-88
2021/01/15 10:38:44;;;;;;;12.30;5.47;;;3.80;77.30;;;;;;4923500;29;20464;-87
2021/01/15 10:41:10;;;;;;;17.08;6.57;;;3.90;77.80;;;;;;4913174;29;20044;-88
2021/01/15 10:43:37;;;;;;;11.75;5.55;;;3.90;76.80;;;;;;4922401;29;20119;-88
2021/01/15 10:46:03;;;;;;;14.07;6.03;;;4.00;79.40;;;;;;4925748;29;20044;-89
2021/01/15 10:48:29;;;;;;;15.85;6.70;;;4.40;80.00;;;;;;4926014;29;20075;-90
2021/01/15 10:51:16;;;;;;;14.65;6.20;;;4.70;79.70;;;;;;4918616;29;20032;-88
2021/01/15 10:53:45;;;;;;;14.70;6.88;;;5.10;80.40;;;;;;4955163;29;20039;-88
2021/01/15 10:56:11;;;;;;;14.02;6.57;;;5.40;80.60;;;;;;4922155;29;20035;-85
2021/01/15 10:58:38;;;;;;;16.35;6.93;;;5.80;80.70;;;;;;4944180;29;20157;-87
2021/01/15 11:01:03;;;;;;;15.05;6.82;;;5.90;79.10;;;;;;4949460;29;20431;-86
2021/01/15 11:03:29;;;;;;;13.32;6.20;;;6.30;80.40;;;;;;4943822;28;20019;-87
2021/01/15 11:05:55;;;;;;;14.68;6.43;;;6.30;78.30;;;;;;4930244;28;20035;-83
2021/01/15 11:08:21;;;;;;;12.98;6.25;;;6.40;78.80;;;;;;4927822;28;20031;-82
2021/01/15 11:10:50;;;;;;;13.63;6.15;;;6.30;77.90;;;;;;4945591;28;20476;-82
2021/01/15 11:13:16;;;;;;;12.20;5.72;;;6.10;77.70;;;;;;4949381;28;20467;-83
2021/01/15 11:15:41;;;;;;;12.05;5.63;;;5.90;77.20;;;;;;4947475;28;20045;-80
2021/01/15 11:18:18;;;;;;;11.50;5.30;;;6.10;79.70;;;;;;4942577;29;20027;-80
2021/01/15 11:20:44;;;;;;;13.25;5.97;;;6.50;80.10;;;;;;4964110;28;20059;-80
2021/01/15 11:23:14;;;;;;;12.90;5.43;;;6.50;78.20;;;;;;4945883;28;20592;-80
2021/01/15 11:25:53;;;;;;;12.70;6.00;;;6.40;77.50;;;;;;4946276;28;20121;-80
2021/01/15 11:28:19;;;;;;;14.30;5.97;;;6.20;76.60;;;;;;4931699;28;20031;-80
2021/01/15 11:30:44;;;;;;;16.38;8.02;;;5.90;76.30;;;;;;4944308;28;20392;-80
2021/01/15 11:33:10;;;;;;;16.70;7.45;;;5.60;76.00;;;;;;4948453;28;20105;-81
2021/01/15 11:35:36;;;;;;;14.82;6.05;;;5.60;77.70;;;;;;4930415;28;20480;-81
2021/01/15 11:38:05;;;;;;;13.13;6.72;;;6.00;80.90;;;;;;4945027;29;20019;-80
2021/01/15 11:40:31;;;;;;;10.30;5.38;;;6.70;82.20;;;;;;4961076;28;20031;-80
2021/01/15 11:42:58;;;;;;;13.10;6.40;;;7.50;83.40;;;;;;4952946;29;20025;-81
2021/01/15 11:45:29;;;;;;;11.98;6.03;;;8.00;82.70;;;;;;4945669;28;20047;-80
2021/01/15 11:47:56;;;;;;;12.40;5.25;;;8.70;83.30;;;;;;4929532;28;20023;-80
2021/01/15 11:50:29;;;;;;;15.80;7.93;;;9.00;79.80;;;;;;4953000;28;20471;-80
2021/01/15 11:52:55;;;;;;;12.35;6.63;;;9.10;80.50;;;;;;4960956;28;20031;-81
2021/01/15 11:55:22;;;;;;;13.10;5.85;;;9.30;78.70;;;;;;4949206;29;20043;-82
2021/01/15 11:57:52;;;;;;;11.63;5.65;;;9.30;79.10;;;;;;4946218;28;20023;-82
2021/01/15 12:00:21;;;;;;;11.35;5.10;;;9.40;79.00;;;;;;4941326;29;20043;-81
2021/01/15 12:02:48;;;;;;;12.55;6.07;;;9.50;80.40;;;;;;4930680;29;20111;-82
2021/01/15 12:05:15;;;;;;;11.52;5.72;;;9.70;79.80;;;;;;4926145;29;20381;-82
2021/01/15 12:07:41;;;;;;;12.32;5.57;;;9.70;79.00;;;;;;4925632;29;20023;-83
2021/01/15 12:10:08;;;;;;;12.27;5.78;;;9.60;77.50;;;;;;4925654;29;20027;-83
2021/01/15 12:12:38;;;;;;;9.02;4.45;;;9.30;75.70;;;;;;4929608;29;20114;-83
2021/01/15 12:15:06;;;;;;;10.90;4.07;;;9.00;76.20;;;;;;4912150;29;20499;-82
2021/01/15 12:17:33;;;;;;;10.38;4.88;;;8.70;76.00;;;;;;4898916;29;20127;-82
2021/01/15 12:19:59;;;;;;;12.73;5.55;;;8.50;76.60;;;;;;4941211;29;20038;-82
2021/01/15 12:22:24;;;;;;;12.30;5.47;;;8.40;76.70;;;;;;4928880;29;20023;-82
2021/01/15 12:24:50;;;;;;;11.32;4.88;;;8.50;78.00;;;;;;4925270;29;20028;-82
2021/01/15 12:27:16;;;;;;;12.38;5.53;;;8.40;76.80;;;;;;4924501;29;20030;-83
2021/01/15 12:29:42;;;;;;;12.32;5.97;;;8.20;75.70;;;;;;4918485;29;20416;-81
2021/01/15 12:32:08;;;;;;;12.73;4.90;;;7.90;76.10;;;;;;4931261;29;20051;-80
2021/01/15 12:34:34;;;;;;;11.65;5.88;;;7.70;75.20;;;;;;4946967;29;20460;-80
2021/01/15 12:37:00;;;;;;;11.82;5.50;;;7.40;75.30;;;;;;4945505;29;20059;-80
2021/01/15 12:39:26;;;;;;;13.90;6.22;;;7.00;75.20;;;;;;4927753;29;20063;-80
2021/01/15 12:41:52;;;;;;;13.07;5.75;;;6.90;76.30;;;;;;4934760;29;20472;-80
2021/01/15 12:44:19;;;;;;;10.88;5.10;;;6.90;76.30;;;;;;4933602;29;20070;-82
2021/01/15 12:46:57;;;;;;;10.75;5.15;;;6.70;76.20;;;;;;4943731;29;20544;-84
2021/01/15 12:49:23;;;;;;;12.60;5.03;;;6.60;75.70;;;;;;4941128;29;20034;-83
2021/01/15 12:51:49;;;;;;;14.43;6.07;;;6.40;75.90;;;;;;4939873;29;20393;-80
2021/01/15 12:54:14;;;;;;;13.02;5.70;;;6.30;75.30;;;;;;4945094;29;20042;-80
2021/01/15 12:56:40;;;;;;;12.15;5.53;;;6.20;75.80;;;;;;4927821;29;20119;-80
2021/01/15 12:59:06;;;;;;;13.20;5.53;;;6.00;76.30;;;;;;4939066;29;20449;-81
2021/01/15 13:01:36;;;;;;;12.50;6.07;;;6.00;77.00;;;;;;4930150;28;20062;-82
2021/01/15 13:04:03;;;;;;;12.98;6.05;;;6.00;76.70;;;;;;4945240;28;20027;-81
2021/01/15 13:06:34;;;;;;;11.40;4.88;;;5.90;75.80;;;;;;4946639;28;20027;-81
2021/01/15 13:09:00;;;;;;;11.32;4.60;;;5.70;75.90;;;;;;4946277;28;20438;-82
2021/01/15 13:11:27;;;;;;;12.85;5.30;;;5.60;75.50;;;;;;4946295;28;20026;-81
2021/01/15 13:13:53;;;;;;;13.77;6.13;;;5.50;75.20;;;;;;4946295;28;20058;-81
2021/01/15 13:16:19;;;;;;;11.60;5.35;;;5.40;75.70;;;;;;4930180;28;20062;-81
2021/01/15 13:18:45;;;;;;;11.57;5.10;;;5.40;76.50;;;;;;4946602;28;20023;-81
2021/01/15 13:21:12;;;;;;;14.43;5.40;;;5.40;76.20;;;;;;4946703;28;20030;-81
2021/01/15 13:23:38;;;;;;;12.23;6.07;;;5.40;76.50;;;;;;4931412;28;20064;-82
2021/01/15 13:26:05;;;;;;;12.13;5.55;;;5.40;76.70;;;;;;4946828;28;20058;-82
2021/01/15 13:28:30;;;;;;;11.90;5.53;;;5.30;76.40;;;;;;4920315;28;20032;-82
2021/01/15 13:30:58;;;;;;;12.00;5.10;;;5.20;75.80;;;;;;4931491;28;20439;-81
2021/01/15 13:33:32;;;;;;;11.45;4.82;;;5.10;75.80;;;;;;4946870;28;21184;-82
2021/01/15 13:36:04;;;;;;;13.43;6.43;;;5.20;76.60;;;;;;4956129;28;20507;-78
2021/01/15 13:38:31;;;;;;;12.68;5.50;;;5.20;76.60;;;;;;4938782;28;20027;-81
2021/01/15 13:40:57;;;;;;;10.40;4.82;;;5.10;76.60;;;;;;4946916;28;20027;-91
2021/01/15 13:43:23;;;;;;;10.85;4.90;;;5.20;77.00;;;;;;4945059;28;20417;-93
2021/01/15 13:46:00;;;;;;;11.27;5.70;;;5.30;76.70;;;;;;4952946;29;20026;-93